Time;durP1;ratioP1;P1;durP2;ratioP2;P2;SDS_P1;SDS_P2;PMS_P1;PMS_P2;Temp;Humidity;BMP_temperature;BMP_pressure;BME280_temperature;BME280_humidity;BME280_pressure;Samples;Min_cycle;Max_cycle;Signal;HPM_P1;HPM_P2
2022/10/12 00:00:17;;;;;;;;;;;14.80;99.90;;;;;;5075063;28;20367;-66
2022/10/12 00:02:43;;;;;;;;;;;14.80;99.90;;;;;;5075488;28;20378;-66
2022/10/12 00:05:08;;;;;;;;;;;14.80;99.90;;;;;;5075112;28;19943;-65
2022/10/12 00:07:34;;;;;;;;;;;14.80;99.90;;;;;;5074906;28;20339;-65
2022/10/12 00:10:00;;;;;;;;;;;14.80;99.90;;;;;;5074888;28;19908;-65
2022/10/12 00:12:25;;;;;;;;;;;14.80;99.90;;;;;;5074645;28;19908;-65
2022/10/12 00:14:51;;;;;;;;;;;14.90;99.90;;;;;;5074801;28;19911;-66
2022/10/12 00:17:16;;;;;;;;;;;14.90;99.90;;;;;;5074716;28;19919;-65
2022/10/12 00:19:42;;;;;;;;;;;14.90;99.90;;;;;;5075047;28;19919;-65
2022/10/12 00:22:07;;;;;;;;;;;14.90;99.90;;;;;;5074664;28;19991;-65
2022/10/12 00:24:34;;;;;;;;;;;14.90;99.90;;;;;;5074839;28;19921;-65
2022/10/12 00:26:59;;;;;;;;;;;14.90;99.90;;;;;;5074266;28;19905;-65
2022/10/12 00:29:25;;;;;;;;;;;14.90;99.90;;;;;;5074561;28;20003;-65
2022/10/12 00:31:50;;;;;;;;;;;14.90;99.90;;;;;;5075198;28;19923;-65
2022/10/12 00:34:16;;;;;;;;;;;14.90;99.90;;;;;;5074589;28;19936;-65
2022/10/12 00:36:42;;;;;;;;;;;14.90;99.90;;;;;;5074600;28;20429;-65
2022/10/12 00:39:08;;;;;;;;;;;14.80;99.90;;;;;;5074223;28;20323;-65
2022/10/12 00:41:35;;;;;;;;;;;14.80;99.90;;;;;;5074094;28;19993;-65
2022/10/12 00:44:01;;;;;;;;;;;14.90;99.90;;;;;;5074209;28;19911;-66
2022/10/12 00:46:32;;;;;;;;;;;15.00;99.90;;;;;;5074567;28;20002;-65
2022/10/12 00:49:12;;;;;;;;;;;15.00;99.90;;;;;;5074240;28;19904;-65
2022/10/12 00:51:42;;;;;;;;;;;15.00;99.90;;;;;;5074327;28;20270;-65
2022/10/12 00:54:11;;;;;;;;;;;14.90;99.90;;;;;;5072743;28;20383;-65
2022/10/12 00:56:38;;;;;;;;;;;14.90;99.90;;;;;;5073895;28;19905;-65
2022/10/12 00:59:08;;;;;;;;;;;14.90;99.90;;;;;;5074485;28;19905;-66
2022/10/12 01:01:34;;;;;;;;;;;14.80;99.90;;;;;;5074094;28;20405;-65
2022/10/12 01:04:00;;;;;;;;;;;14.80;99.90;;;;;;5073961;28;20359;-65
2022/10/12 01:06:26;;;;;;;;;;;14.90;99.90;;;;;;5073299;28;19904;-64
2022/10/12 01:08:53;;;;;;;;;;;14.90;99.90;;;;;;5073706;28;19908;-65
2022/10/12 01:11:19;;;;;;;;;;;14.80;99.90;;;;;;5074441;28;19957;-65
2022/10/12 01:13:44;;;;;;;;;;;14.80;99.90;;;;;;5073875;28;19999;-65
2022/10/12 01:16:16;;;;;;;;;;;14.80;99.90;;;;;;5073644;28;19904;-65
2022/10/12 01:18:47;;;;;;;;;;;14.90;99.90;;;;;;5073399;28;19925;-65
2022/10/12 01:21:16;;;;;;;;;;;14.90;99.90;;;;;;5073848;28;19923;-65
2022/10/12 01:24:00;;;;;;;;;;;14.90;99.90;;;;;;5073196;28;20365;-65
2022/10/12 01:26:31;;;;;;;;;;;14.90;99.90;;;;;;5073617;28;19904;-65
2022/10/12 01:29:12;;;;;;;;;;;14.90;99.90;;;;;;5073413;28;19911;-65
2022/10/12 01:31:48;;;;;;;;;;;14.90;99.90;;;;;;5073317;28;19904;-65
2022/10/12 01:34:33;;;;;;;;;;;15.00;99.90;;;;;;5073355;28;19908;-65
2022/10/12 01:37:19;;;;;;;;;;;15.00;99.90;;;;;;5073196;28;19904;-65
2022/10/12 01:39:48;;;;;;;;;;;15.00;99.90;;;;;;5072855;28;19913;-65
2022/10/12 01:42:19;;;;;;;;;;;15.00;99.90;;;;;;5073172;28;19915;-65
2022/10/12 01:44:44;;;;;;;;;;;15.00;99.90;;;;;;5072903;28;19973;-65
2022/10/12 01:47:10;;;;;;;;;;;15.00;99.90;;;;;;5073287;28;20371;-65
2022/10/12 01:49:36;;;;;;;;;;;15.00;99.90;;;;;;5073399;28;19904;-65
2022/10/12 01:52:07;;;;;;;;;;;15.00;99.90;;;;;;5072960;28;20355;-65
2022/10/12 01:54:51;;;;;;;;;;;15.00;99.90;;;;;;5072652;28;19911;-65
2022/10/12 01:57:35;;;;;;;;;;;15.00;99.90;;;;;;5073537;28;19912;-65
2022/10/12 02:00:08;;;;;;;;;;;14.90;99.90;;;;;;5072888;28;19916;-65
2022/10/12 02:02:33;;;;;;;;;;;15.00;99.90;;;;;;5072856;28;20034;-65
2022/10/12 02:05:03;;;;;;;;;;;14.90;99.90;;;;;;5072661;28;19995;-65
2022/10/12 02:07:38;;;;;;;;;;;15.00;99.90;;;;;;5072387;28;19908;-66
2022/10/12 02:10:06;;;;;;;;;;;14.90;99.90;;;;;;5072555;28;19904;-65
2022/10/12 02:12:33;;;;;;;;;;;15.00;99.90;;;;;;5072733;28;19911;-66
2022/10/12 02:15:01;;;;;;;;;;;14.90;99.90;;;;;;5073136;28;19904;-65
2022/10/12 02:17:27;;;;;;;;;;;15.00;99.90;;;;;;5072040;28;19923;-65
2022/10/12 02:19:54;;;;;;;;;;;14.90;99.90;;;;;;5072415;28;19921;-65
2022/10/12 02:22:21;;;;;;;;;;;14.90;99.90;;;;;;5072690;28;20006;-65
2022/10/12 02:24:50;;;;;;;;;;;14.90;99.90;;;;;;5072685;28;19926;-65
2022/10/12 02:27:17;;;;;;;;;;;14.90;99.90;;;;;;5072501;28;19950;-65
2022/10/12 02:29:44;;;;;;;;;;;14.90;99.90;;;;;;5072569;28;19904;-65
2022/10/12 02:32:16;;;;;;;;;;;14.90;99.90;;;;;;5072465;28;19911;-65
2022/10/12 02:34:44;;;;;;;;;;;15.00;99.90;;;;;;5071320;28;20369;-65
2022/10/12 02:37:22;;;;;;;;;;;14.90;99.90;;;;;;5072063;28;19911;-65
2022/10/12 02:39:53;;;;;;;;;;;15.00;99.90;;;;;;5072248;28;19909;-66
2022/10/12 02:42:21;;;;;;;;;;;14.90;99.90;;;;;;5072374;28;19950;-65
2022/10/12 02:44:47;;;;;;;;;;;14.80;99.90;;;;;;5072037;28;19904;-65
2022/10/12 02:47:14;;;;;;;;;;;14.90;99.90;;;;;;5072720;28;20404;-65
2022/10/12 02:49:40;;;;;;;;;;;14.70;99.90;;;;;;5072023;28;20365;-65
2022/10/12 02:52:06;;;;;;;;;;;14.80;99.90;;;;;;5071914;28;19939;-65
2022/10/12 02:54:32;;;;;;;;;;;14.80;99.90;;;;;;5072205;28;19935;-65
2022/10/12 02:56:57;;;;;;;;;;;14.80;99.90;;;;;;5072384;28;20420;-66
2022/10/12 02:59:23;;;;;;;;;;;14.80;99.90;;;;;;5072016;28;20283;-65
2022/10/12 03:01:48;;;;;;;;;;;14.80;99.90;;;;;;5072131;28;20275;-65
2022/10/12 03:04:14;;;;;;;;;;;14.80;99.90;;;;;;5072020;28;20263;-65
2022/10/12 03:06:41;;;;;;;;;;;14.80;99.90;;;;;;5072147;28;19904;-65
2022/10/12 03:09:07;;;;;;;;;;;14.80;99.90;;;;;;5071979;28;20366;-65
2022/10/12 03:11:32;;;;;;;;;;;14.80;99.90;;;;;;5071948;28;19917;-65
2022/10/12 03:13:58;;;;;;;;;;;14.80;99.90;;;;;;5072400;28;19904;-65
2022/10/12 03:16:24;;;;;;;;;;;14.80;99.90;;;;;;5071988;28;19904;-65
2022/10/12 03:18:50;;;;;;;;;;;14.80;99.90;;;;;;5071655;28;19916;-65
2022/10/12 03:21:16;;;;;;;;;;;14.80;99.90;;;;;;5071782;28;19919;-65
2022/10/12 03:23:41;;;;;;;;;;;14.90;99.90;;;;;;5073174;28;20436;-65
2022/10/12 03:26:07;;;;;;;;;;;14.90;99.90;;;;;;5072311;28;20276;-65
2022/10/12 03:28:33;;;;;;;;;;;14.90;99.90;;;;;;5073047;28;20324;-65
2022/10/12 03:30:59;;;;;;;;;;;14.80;99.90;;;;;;5075739;28;20006;-65
2022/10/12 03:33:24;;;;;;;;;;;14.80;99.90;;;;;;5075550;28;19970;-65
2022/10/12 03:35:50;;;;;;;;;;;14.80;99.90;;;;;;5075540;28;19904;-65
2022/10/12 03:38:16;;;;;;;;;;;14.80;99.90;;;;;;5075648;28;19904;-65
2022/10/12 03:40:42;;;;;;;;;;;14.80;99.90;;;;;;5075491;28;19919;-65
2022/10/12 03:43:07;;;;;;;;;;;14.70;99.90;;;;;;5075638;28;19905;-65
2022/10/12 03:45:33;;;;;;;;;;;14.70;99.90;;;;;;5075620;28;19966;-65
2022/10/12 03:47:59;;;;;;;;;;;14.60;99.90;;;;;;5075479;28;19944;-65
2022/10/12 03:50:25;;;;;;;;;;;14.50;99.90;;;;;;5075067;28;20378;-65
2022/10/12 03:52:50;;;;;;;;;;;14.60;99.90;;;;;;5075361;28;19905;-66
2022/10/12 03:55:16;;;;;;;;;;;14.60;99.90;;;;;;5075194;28;19995;-65
2022/10/12 03:57:41;;;;;;;;;;;14.60;99.90;;;;;;5075278;28;19904;-65
2022/10/12 04:00:07;;;;;;;;;;;14.60;99.90;;;;;;5075019;28;19935;-65
2022/10/12 04:02:33;;;;;;;;;;;14.50;99.90;;;;;;5075096;28;19994;-65
2022/10/12 04:04:58;;;;;;;;;;;14.40;99.90;;;;;;5074734;28;19971;-65
2022/10/12 04:07:24;;;;;;;;;;;14.60;99.90;;;;;;5075219;28;19904;-65
2022/10/12 04:09:49;;;;;;;;;;;14.60;99.90;;;;;;5075019;28;19991;-66
2022/10/12 04:12:15;;;;;;;;;;;14.60;99.90;;;;;;5074858;28;19931;-65
2022/10/12 04:14:40;;;;;;;;;;;14.60;99.90;;;;;;5074730;28;19926;-65
2022/10/12 04:17:06;;;;;;;;;;;14.60;99.90;;;;;;5074639;28;19930;-65
2022/10/12 04:19:32;;;;;;;;;;;14.60;99.90;;;;;;5074388;28;19919;-65
2022/10/12 04:21:57;;;;;;;;;;;14.50;99.90;;;;;;5074923;28;20389;-66
2022/10/12 04:24:23;;;;;;;;;;;14.50;99.90;;;;;;5075318;28;20370;-66
2022/10/12 04:26:48;;;;;;;;;;;14.40;99.90;;;;;;5074801;28;19905;-65
2022/10/12 04:29:14;;;;;;;;;;;14.40;99.90;;;;;;5074683;28;19912;-66
2022/10/12 04:31:40;;;;;;;;;;;14.30;99.90;;;;;;5074617;28;19915;-65
2022/10/12 04:34:05;;;;;;;;;;;14.30;99.90;;;;;;5073906;28;19912;-65
2022/10/12 04:36:31;;;;;;;;;;;14.20;99.90;;;;;;5074960;28;19904;-66
2022/10/12 04:38:57;;;;;;;;;;;14.20;99.90;;;;;;5073929;28;20367;-65
2022/10/12 04:41:22;;;;;;;;;;;14.30;99.90;;;;;;5074258;28;20016;-65
2022/10/12 04:43:48;;;;;;;;;;;14.30;99.90;;;;;;5074765;28;19905;-66
2022/10/12 04:46:14;;;;;;;;;;;14.30;99.90;;;;;;5074035;28;19915;-65
2022/10/12 04:48:39;;;;;;;;;;;14.30;99.90;;;;;;5074048;28;20282;-66
2022/10/12 04:51:05;;;;;;;;;;;14.30;99.90;;;;;;5074492;28;20054;-66
2022/10/12 04:53:31;;;;;;;;;;;14.30;99.90;;;;;;5074294;28;19989;-66
2022/10/12 04:55:56;;;;;;;;;;;14.20;99.90;;;;;;5074097;28;20363;-66
2022/10/12 04:58:22;;;;;;;;;;;14.20;99.90;;;;;;5074100;28;20035;-66
2022/10/12 05:00:47;;;;;;;;;;;14.10;99.90;;;;;;5074090;28;19935;-65
2022/10/12 05:03:13;;;;;;;;;;;14.10;99.90;;;;;;5073954;28;19967;-66
2022/10/12 05:05:39;;;;;;;;;;;14.10;99.90;;;;;;5073886;28;20311;-66
2022/10/12 05:08:04;;;;;;;;;;;14.10;99.90;;;;;;5073752;28;19904;-66
2022/10/12 05:10:30;;;;;;;;;;;14.10;99.90;;;;;;5073870;28;19943;-66
2022/10/12 05:12:55;;;;;;;;;;;14.10;99.90;;;;;;5074083;28;19966;-66
2022/10/12 05:15:21;;;;;;;;;;;14.10;99.90;;;;;;5073729;28;19904;-69
2022/10/12 05:17:47;;;;;;;;;;;14.10;99.90;;;;;;5073238;28;19969;-66
2022/10/12 05:20:12;;;;;;;;;;;14.10;99.90;;;;;;5073490;28;19920;-66
2022/10/12 05:22:38;;;;;;;;;;;14.00;99.90;;;;;;5074058;28;19905;-66
2022/10/12 05:25:04;;;;;;;;;;;14.10;99.90;;;;;;5073614;28;19908;-66
2022/10/12 05:27:29;;;;;;;;;;;14.10;99.90;;;;;;5073501;28;20354;-66
2022/10/12 05:29:55;;;;;;;;;;;14.20;99.90;;;;;;5073754;28;19912;-66
2022/10/12 05:32:21;;;;;;;;;;;14.30;99.90;;;;;;5073112;28;20443;-66
2022/10/12 05:34:46;;;;;;;;;;;14.30;99.90;;;;;;5074051;28;19970;-65
2022/10/12 05:37:12;;;;;;;;;;;14.20;99.90;;;;;;5077037;28;19911;-65
2022/10/12 05:39:37;;;;;;;;;;;14.20;99.90;;;;;;5073303;28;20279;-66
2022/10/12 05:42:03;;;;;;;;;;;14.20;99.90;;;;;;5073389;28;20381;-65
2022/10/12 05:44:29;;;;;;;;;;;14.20;99.90;;;;;;5072925;28;19908;-65
2022/10/12 05:46:55;;;;;;;;;;;14.10;99.90;;;;;;5072827;28;20278;-66
2022/10/12 05:49:20;;;;;;;;;;;14.10;99.90;;;;;;5073593;28;19943;-65
2022/10/12 05:51:46;;;;;;;;;;;14.00;99.90;;;;;;5072336;28;19931;-65
2022/10/12 05:54:11;;;;;;;;;;;14.00;99.90;;;;;;5071771;28;19905;-65
2022/10/12 05:56:37;;;;;;;;;;;14.00;99.90;;;;;;5072727;28;19999;-66
2022/10/12 05:59:02;;;;;;;;;;;13.90;99.90;;;;;;5072546;28;19908;-64
2022/10/12 06:01:28;;;;;;;;;;;13.90;99.90;;;;;;5073008;28;19911;-66
2022/10/12 06:03:54;;;;;;;;;;;13.90;99.90;;;;;;5072932;28;19905;-65
2022/10/12 06:06:19;;;;;;;;;;;13.80;99.90;;;;;;5072921;28;19931;-64
2022/10/12 06:08:45;;;;;;;;;;;13.80;99.90;;;;;;5072660;28;19905;-67
2022/10/12 06:11:11;;;;;;;;;;;13.80;99.90;;;;;;5072619;28;19915;-67
2022/10/12 06:13:36;;;;;;;;;;;13.80;99.90;;;;;;5072719;28;19904;-65
2022/10/12 06:16:02;;;;;;;;;;;13.80;99.90;;;;;;5072690;28;19930;-66
2022/10/12 06:18:28;;;;;;;;;;;13.80;99.90;;;;;;5072515;28;19916;-66
2022/10/12 06:20:53;;;;;;;;;;;13.70;99.90;;;;;;5072363;28;19924;-66
2022/10/12 06:23:19;;;;;;;;;;;13.80;99.90;;;;;;5072909;28;19908;-66
2022/10/12 06:25:46;;;;;;;;;;;13.80;99.90;;;;;;5072606;28;19911;-66
2022/10/12 06:28:12;;;;;;;;;;;13.90;99.90;;;;;;5072210;28;19905;-66
2022/10/12 06:30:38;;;;;;;;;;;13.90;99.90;;;;;;5072496;28;20278;-66
2022/10/12 06:33:03;;;;;;;;;;;13.90;99.90;;;;;;5072843;28;20437;-66
2022/10/12 06:35:29;;;;;;;;;;;13.90;99.90;;;;;;5072317;28;20390;-66
2022/10/12 06:37:54;;;;;;;;;;;14.10;99.90;;;;;;5071118;28;20374;-66
2022/10/12 06:40:20;;;;;;;;;;;14.10;99.90;;;;;;5072187;28;19974;-66
2022/10/12 06:42:47;;;;;;;;;;;14.10;99.90;;;;;;5071934;28;19932;-66
2022/10/12 06:45:13;;;;;;;;;;;14.20;99.90;;;;;;5072214;28;19909;-66
2022/10/12 06:47:38;;;;;;;;;;;14.30;99.90;;;;;;5072299;28;19966;-66
2022/10/12 06:50:04;;;;;;;;;;;14.40;99.90;;;;;;5072448;28;19904;-66
2022/10/12 06:52:30;;;;;;;;;;;14.40;99.90;;;;;;5072589;28;20310;-66
2022/10/12 06:54:56;;;;;;;;;;;14.30;99.90;;;;;;5072154;28;19904;-66
2022/10/12 06:57:21;;;;;;;;;;;14.30;99.90;;;;;;5071770;28;19919;-66
2022/10/12 06:59:47;;;;;;;;;;;14.30;99.90;;;;;;5072143;28;20286;-68
2022/10/12 07:02:12;;;;;;;;;;;14.40;99.90;;;;;;5072134;28;20016;-68
2022/10/12 07:04:38;;;;;;;;;;;14.50;99.90;;;;;;5075300;28;19904;-68
2022/10/12 07:07:03;;;;;;;;;;;14.40;99.90;;;;;;5076326;28;20381;-67
2022/10/12 07:09:29;;;;;;;;;;;14.50;99.90;;;;;;5075977;28;20381;-66
2022/10/12 07:11:55;;;;;;;;;;;14.50;99.90;;;;;;5075743;28;19927;-67
2022/10/12 07:14:20;;;;;;;;;;;14.50;99.90;;;;;;5076322;28;19959;-67
2022/10/12 07:16:46;;;;;;;;;;;14.50;99.90;;;;;;5076036;28;20093;-67
2022/10/12 07:19:12;;;;;;;;;;;14.60;99.90;;;;;;5075747;28;19917;-67
2022/10/12 07:21:37;;;;;;;;;;;14.60;99.90;;;;;;5075935;28;19919;-67
2022/10/12 07:24:03;;;;;;;;;;;14.70;99.90;;;;;;5075924;28;20366;-67
2022/10/12 07:26:30;;;;;;;;;;;14.80;99.90;;;;;;5075815;28;19999;-68
2022/10/12 07:28:56;;;;;;;;;;;14.90;99.90;;;;;;5076115;28;19904;-67
2022/10/12 07:31:21;;;;;;;;;;;15.00;99.90;;;;;;5075718;28;20342;-68
2022/10/12 07:33:47;;;;;;;;;;;15.00;99.90;;;;;;5075559;28;20002;-67
2022/10/12 07:36:12;;;;;;;;;;;15.00;99.90;;;;;;5075671;28;19942;-67
2022/10/12 07:38:38;;;;;;;;;;;15.10;99.90;;;;;;5075314;28;19931;-67
2022/10/12 07:41:04;;;;;;;;;;;15.30;99.90;;;;;;5075233;28;19920;-67
2022/10/12 07:43:29;;;;;;;;;;;15.30;99.90;;;;;;5075354;28;19920;-68
2022/10/12 07:45:55;;;;;;;;;;;15.40;99.90;;;;;;5074903;28;19916;-68
2022/10/12 07:48:21;;;;;;;;;;;15.60;99.90;;;;;;5075367;28;19904;-67
2022/10/12 07:50:47;;;;;;;;;;;15.60;99.90;;;;;;5077315;28;19905;-67
2022/10/12 07:53:12;;;;;;;;;;;15.70;99.90;;;;;;5075513;28;20263;-68
2022/10/12 07:55:38;;;;;;;;;;;15.80;99.90;;;;;;5075089;28;19911;-68
2022/10/12 07:58:04;;;;;;;;;;;16.00;99.90;;;;;;5074149;28;20061;-68
2022/10/12 08:00:30;;;;;;;;;;;16.20;99.90;;;;;;5075181;28;20442;-68
2022/10/12 08:02:55;;;;;;;;;;;16.40;99.90;;;;;;5075152;28;19905;-68
2022/10/12 08:05:22;;;;;;;;;;;16.60;99.90;;;;;;5075003;28;20370;-68
2022/10/12 08:07:48;;;;;;;;;;;16.80;99.90;;;;;;5075282;28;19909;-68
2022/10/12 08:10:14;;;;;;;;;;;16.70;99.90;;;;;;5074586;28;19912;-68
2022/10/12 08:12:39;;;;;;;;;;;16.70;99.90;;;;;;5075279;28;19995;-68
2022/10/12 08:15:05;;;;;;;;;;;16.60;99.90;;;;;;5074257;28;20003;-68
2022/10/12 08:17:31;;;;;;;;;;;16.70;99.90;;;;;;5074695;28;19966;-67
2022/10/12 08:19:56;;;;;;;;;;;16.60;99.90;;;;;;5074436;28;19912;-67
2022/10/12 08:22:22;;;;;;;;;;;16.70;99.90;;;;;;5074718;28;19983;-67
2022/10/12 08:24:47;;;;;;;;;;;16.60;99.90;;;;;;5074629;28;20420;-68
2022/10/12 08:27:13;;;;;;;;;;;16.70;99.90;;;;;;5075088;28;20370;-67
2022/10/12 08:29:38;;;;;;;;;;;16.70;99.90;;;;;;5074595;28;19912;-68
2022/10/12 08:32:04;;;;;;;;;;;16.80;99.90;;;;;;5074545;28;19904;-68
2022/10/12 08:34:30;;;;;;;;;;;16.80;99.90;;;;;;5074634;28;19996;-68
2022/10/12 08:36:56;;;;;;;;;;;16.90;99.90;;;;;;5074680;28;19948;-68
2022/10/12 08:39:22;;;;;;;;;;;16.90;99.90;;;;;;5074069;28;19946;-68
2022/10/12 08:41:57;;;;;;;;;;;16.90;99.90;;;;;;5074383;28;20343;-68
2022/10/12 08:44:58;;;;;;;;;;;17.10;99.90;;;;;;5074479;28;19930;-68
2022/10/12 08:47:31;;;;;;;;;;;17.00;99.90;;;;;;5012435;28;19920;-68
2022/10/12 08:49:57;;;;;;;;;;;17.30;99.90;;;;;;5012859;28;20005;-68
2022/10/12 08:52:27;;;;;;;;;;;17.60;99.90;;;;;;5012366;28;19905;-68
2022/10/12 08:54:53;;;;;;;;;;;17.60;99.90;;;;;;5011922;28;19914;-68
2022/10/12 08:57:19;;;;;;;;;;;17.60;99.90;;;;;;5012131;28;19909;-68
2022/10/12 08:59:45;;;;;;;;;;;17.50;99.90;;;;;;4995707;28;20273;-68
2022/10/12 09:02:30;;;;;;;;;;;17.60;99.90;;;;;;5012170;28;19958;-68
2022/10/12 09:04:57;;;;;;;;;;;17.50;99.90;;;;;;5012065;28;19913;-68
2022/10/12 09:07:30;;;;;;;;;;;17.40;99.90;;;;;;5012018;28;19905;-67
2022/10/12 09:09:56;;;;;;;;;;;17.70;99.90;;;;;;5011985;28;19905;-68
2022/10/12 09:12:30;;;;;;;;;;;17.90;99.90;;;;;;5011950;28;19959;-67
2022/10/12 09:15:02;;;;;;;;;;;18.00;99.90;;;;;;5012255;28;19905;-67
2022/10/12 09:17:42;;;;;;;;;;;18.20;99.90;;;;;;5011780;28;19913;-67
2022/10/12 09:20:16;;;;;;;;;;;18.40;99.90;;;;;;5012109;28;19913;-67
2022/10/12 09:22:43;;;;;;;;;;;18.30;99.90;;;;;;5053544;28;19905;-66
2022/10/12 09:25:11;;;;;;;;;;;18.50;99.90;;;;;;5053674;28;19912;-66
2022/10/12 09:27:37;;;;;;;;;;;18.50;99.90;;;;;;5052825;28;19909;-66
2022/10/12 09:30:03;;;;;;;;;;;18.50;99.90;;;;;;5053574;28;19932;-67
2022/10/12 09:32:34;;;;;;;;;;;18.50;99.90;;;;;;5053494;28;19908;-66
2022/10/12 09:34:59;;;;;;;;;;;18.60;99.90;;;;;;5053687;28;19905;-66
2022/10/12 09:37:27;;;;;;;;;;;18.70;99.90;;;;;;5052967;28;19904;-66
2022/10/12 09:39:53;;;;;;;;;;;18.80;99.90;;;;;;5053407;28;20177;-65
2022/10/12 09:42:18;;;;;;;;;;;18.80;99.90;;;;;;5053197;28;19987;-65
2022/10/12 09:44:44;;;;;;;;;;;18.70;99.90;;;;;;5055518;28;19989;-65
2022/10/12 09:47:30;;;;;;;;;;;18.90;99.90;;;;;;5073461;28;19957;-65
2022/10/12 09:49:57;;;;;;;;;;;19.00;99.90;;;;;;5072565;28;19905;-67
2022/10/12 09:52:38;;;;;;;;;;;19.00;99.90;;;;;;5072614;28;19904;-66
2022/10/12 09:55:05;;;;;;;;;;;19.00;99.90;;;;;;5072854;28;19905;-67
2022/10/12 09:57:32;;;;;;;;;;;19.10;99.90;;;;;;5073155;28;19908;-65
2022/10/12 09:59:59;;;;;;;;;;;19.20;99.90;;;;;;5072747;28;19912;-67
2022/10/12 10:02:25;;;;;;;;;;;19.30;99.90;;;;;;5073095;28;20170;-67
2022/10/12 10:04:51;;;;;;;;;;;19.20;99.90;;;;;;5073815;28;20263;-67
2022/10/12 10:07:23;;;;;;;;;;;19.40;99.90;;;;;;5072316;28;19916;-64
2022/10/12 10:10:09;;;;;;;;;;;19.40;99.90;;;;;;5072010;28;20370;-68
2022/10/12 10:12:41;;;;;;;;;;;19.40;99.90;;;;;;5069554;28;19958;-66
2022/10/12 10:15:38;;;;;;;;;;;19.40;99.90;;;;;;5071959;28;19904;-67
2022/10/12 10:18:20;;;;;;;;;;;19.50;99.90;;;;;;5055483;28;20019;-68
2022/10/12 10:20:51;;;;;;;;;;;19.50;99.90;;;;;;5071367;28;19919;-68
2022/10/12 10:23:22;;;;;;;;;;;20.00;99.90;;;;;;5071350;28;19904;-68
2022/10/12 10:25:58;;;;;;;;;;;20.50;99.90;;;;;;5071683;28;19904;-67
2022/10/12 10:28:27;;;;;;;;;;;21.80;99.90;;;;;;5072324;28;19904;-68
2022/10/12 10:30:57;;;;;;;;;;;23.00;99.90;;;;;;5072468;28;20578;-68
2022/10/12 10:33:23;;;;;;;;;;;24.00;99.90;;;;;;5072555;28;19911;-68
2022/10/12 10:35:54;;;;;;;;;;;24.50;99.90;;;;;;5071939;28;19905;-65
2022/10/12 10:38:20;;;;;;;;;;;24.30;99.90;;;;;;5072116;28;19904;-68
2022/10/12 10:40:50;;;;;;;;;;;24.60;99.90;;;;;;5073067;28;19912;-68
2022/10/12 10:43:20;;;;;;;;;;;26.10;99.90;;;;;;5072420;28;19940;-65
2022/10/12 10:45:50;;;;;;;;;;;27.20;99.90;;;;;;5072149;28;20393;-67
2022/10/12 10:48:18;;;;;;;;;;;27.00;99.90;;;;;;5072088;28;20007;-67
2022/10/12 10:50:48;;;;;;;;;;;26.50;99.90;;;;;;5071957;28;19950;-67
2022/10/12 10:53:19;;;;;;;;;;;26.10;99.90;;;;;;5072733;28;20006;-67
2022/10/12 10:55:57;;;;;;;;;;;27.70;99.90;;;;;;5072216;28;19904;-68
2022/10/12 10:58:25;;;;;;;;;;;26.10;99.90;;;;;;5072220;28;19944;-67
2022/10/12 11:00:52;;;;;;;;;;;26.70;99.90;;;;;;5070459;28;19999;-67
2022/10/12 11:03:24;;;;;;;;;;;25.40;99.90;;;;;;5072131;28;20384;-67
2022/10/12 11:06:12;;;;;;;;;;;26.10;99.90;;;;;;5071845;28;19990;-68
2022/10/12 11:08:38;;;;;;;;;;;25.70;99.90;;;;;;5071546;28;19904;-67
2022/10/12 11:11:14;;;;;;;;;;;26.40;99.90;;;;;;5072095;28;20003;-68
2022/10/12 11:13:46;;;;;;;;;;;25.00;99.90;;;;;;5072216;28;19991;-68
2022/10/12 11:16:35;;;;;;;;;;;24.80;99.90;;;;;;5072581;28;20003;-68
2022/10/12 11:19:04;;;;;;;;;;;24.60;99.90;;;;;;5009830;28;19996;-68
2022/10/12 11:21:34;;;;;;;;;;;24.20;99.90;;;;;;5010311;28;19945;-68
2022/10/12 11:24:12;;;;;;;;;;;24.30;99.90;;;;;;5010132;28;19912;-68
2022/10/12 11:26:56;;;;;;;;;;;25.30;99.90;;;;;;4993370;28;20236;-68
2022/10/12 11:29:22;;;;;;;;;;;24.50;99.90;;;;;;5009644;28;20003;-68
2022/10/12 11:31:47;;;;;;;;;;;24.80;99.90;;;;;;5009712;28;19944;-68
2022/10/12 11:34:15;;;;;;;;;;;25.20;99.90;;;;;;5009378;28;19909;-68
2022/10/12 11:36:42;;;;;;;;;;;25.40;99.90;;;;;;5010118;28;19956;-69
2022/10/12 11:39:14;;;;;;;;;;;25.10;99.90;;;;;;5009901;28;19905;-68
2022/10/12 11:41:48;;;;;;;;;;;26.10;99.90;;;;;;5010233;28;19913;-68
2022/10/12 11:44:16;;;;;;;;;;;25.90;99.90;;;;;;5009697;28;19909;-68
2022/10/12 11:46:52;;;;;;;;;;;26.70;99.90;;;;;;5009312;28;19945;-68
2022/10/12 11:49:17;;;;;;;;;;;26.50;99.90;;;;;;5010444;28;19916;-68
2022/10/12 11:51:45;;;;;;;;;;;26.40;99.90;;;;;;5013757;28;19906;-68
2022/10/12 11:54:30;;;;;;;;;;;25.60;99.90;;;;;;5013589;28;20008;-68
2022/10/12 11:56:57;;;;;;;;;;;26.30;99.90;;;;;;5050443;28;20260;-68
2022/10/12 11:59:43;;;;;;;;;;;25.80;99.90;;;;;;5055513;28;20629;-68
2022/10/12 12:02:11;;;;;;;;;;;25.60;99.90;;;;;;5055522;28;19951;-68
2022/10/12 12:04:40;;;;;;;;;;;24.60;99.90;;;;;;5055533;28;19916;-68
2022/10/12 12:07:24;;;;;;;;;;;24.90;99.90;;;;;;5055442;28;19908;-68
2022/10/12 12:09:50;;;;;;;;;;;24.80;99.90;;;;;;5055180;28;19904;-68
2022/10/12 12:12:23;;;;;;;;;;;25.20;99.90;;;;;;5068871;28;19916;-68
2022/10/12 12:14:52;;;;;;;;;;;25.30;99.90;;;;;;5075480;28;20432;-68
2022/10/12 12:17:17;;;;;;;;;;;25.30;99.90;;;;;;5077435;28;20449;-68
2022/10/12 12:19:43;;;;;;;;;;;25.90;99.90;;;;;;5075496;28;20010;-69
2022/10/12 12:22:13;;;;;;;;;;;25.80;99.90;;;;;;5075352;28;20006;-68
2022/10/12 12:24:49;;;;;;;;;;;25.10;99.90;;;;;;5074994;28;19904;-68
2022/10/12 12:27:29;;;;;;;;;;;25.10;99.90;;;;;;5075085;28;19911;-69
2022/10/12 12:29:56;;;;;;;;;;;25.50;99.90;;;;;;5075129;28;19911;-68
2022/10/12 12:32:21;;;;;;;;;;;25.40;99.90;;;;;;5074656;28;19912;-69
2022/10/12 12:34:50;;;;;;;;;;;25.60;99.90;;;;;;5074776;28;20317;-68
2022/10/12 12:37:18;;;;;;;;;;;25.20;99.90;;;;;;5074942;28;19908;-69
2022/10/12 12:39:44;;;;;;;;;;;24.80;99.90;;;;;;5074853;28;19966;-69
2022/10/12 12:42:10;;;;;;;;;;;25.10;99.90;;;;;;5074663;28;19904;-69
2022/10/12 12:44:43;;;;;;;;;;;25.20;99.90;;;;;;5074481;28;19909;-69
2022/10/12 12:47:09;;;;;;;;;;;24.60;99.90;;;;;;5072977;28;20337;-68
2022/10/12 12:49:34;;;;;;;;;;;24.80;99.90;;;;;;5074668;28;19905;-68
2022/10/12 12:52:00;;;;;;;;;;;24.40;99.90;;;;;;5074347;28;19911;-69
2022/10/12 12:54:26;;;;;;;;;;;24.50;99.90;;;;;;5075160;28;19970;-69
2022/10/12 12:57:10;;;;;;;;;;;24.80;99.90;;;;;;5074485;28;19931;-69
2022/10/12 12:59:54;;;;;;;;;;;24.40;99.90;;;;;;5073748;28;19904;-68
2022/10/12 13:02:38;;;;;;;;;;;24.20;99.90;;;;;;5074413;28;19989;-68
2022/10/12 13:05:13;;;;;;;;;;;24.60;99.90;;;;;;5074729;28;19920;-68
2022/10/12 13:08:17;;;;;;;;;;;24.30;99.90;;;;;;5074091;28;19958;-68
2022/10/12 13:10:49;;;;;;;;;;;24.70;99.90;;;;;;4992775;28;19906;-68
2022/10/12 13:13:32;;;;;;;;;;;24.30;99.90;;;;;;4992509;28;20288;-68
2022/10/12 13:16:17;;;;;;;;;;;24.20;99.90;;;;;;4992227;28;19941;-68
2022/10/12 13:19:01;;;;;;;;;;;24.40;99.90;;;;;;4992442;28;19922;-68
2022/10/12 13:21:30;;;;;;;;;;;24.20;99.90;;;;;;4992415;28;19967;-68
2022/10/12 13:24:00;;;;;;;;;;;24.30;99.90;;;;;;4993116;28;19960;-68
2022/10/12 13:26:27;;;;;;;;;;;24.50;99.90;;;;;;4992358;28;19937;-67
2022/10/12 13:28:54;;;;;;;;;;;24.20;99.90;;;;;;4991802;28;20033;-67
2022/10/12 13:31:22;;;;;;;;;;;24.20;99.90;;;;;;4992097;28;19906;-67
2022/10/12 13:34:05;;;;;;;;;;;24.10;99.90;;;;;;4992147;28;20498;-66
2022/10/12 13:36:33;;;;;;;;;;;23.80;99.90;;;;;;4992392;28;19906;-67
2022/10/12 13:38:59;;;;;;;;;;;23.60;99.90;;;;;;4992527;28;20012;-67
2022/10/12 13:41:29;;;;;;;;;;;23.60;99.90;;;;;;5021435;28;19923;-68
2022/10/12 13:43:57;;;;;;;;;;;23.80;99.90;;;;;;5052960;28;19911;-67
2022/10/12 13:46:36;;;;;;;;;;;23.60;99.90;;;;;;5069476;28;19940;-68
2022/10/12 13:49:02;;;;;;;;;;;23.70;99.90;;;;;;5074127;28;19987;-67
2022/10/12 13:51:29;;;;;;;;;;;23.60;99.90;;;;;;5073312;28;20400;-67
2022/10/12 13:53:55;;;;;;;;;;;23.40;99.90;;;;;;5073166;28;19944;-68
2022/10/12 13:56:27;;;;;;;;;;;23.40;99.90;;;;;;5073112;28;19911;-67
2022/10/12 13:58:57;;;;;;;;;;;23.40;99.90;;;;;;5072577;28;20038;-67
2022/10/12 14:01:23;;;;;;;;;;;22.80;99.90;;;;;;5073282;28;19958;-68
2022/10/12 14:03:49;;;;;;;;;;;22.80;99.90;;;;;;5072931;28;19912;-68
2022/10/12 14:06:31;;;;;;;;;;;22.90;99.90;;;;;;5073136;28;20267;-68
2022/10/12 14:08:58;;;;;;;;;;;22.70;99.90;;;;;;5073132;28;19905;-68
2022/10/12 14:11:25;;;;;;;;;;;22.90;99.90;;;;;;5073016;28;20271;-68
2022/10/12 14:13:51;;;;;;;;;;;22.90;99.90;;;;;;5072060;28;19904;-68
2022/10/12 14:16:16;;;;;;;;;;;22.90;99.90;;;;;;5072991;28;20353;-68
2022/10/12 14:18:44;;;;;;;;;;;22.60;99.90;;;;;;5072678;28;19917;-68
2022/10/12 14:21:22;;;;;;;;;;;22.90;99.90;;;;;;5072783;28;19912;-68
2022/10/12 14:23:57;;;;;;;;;;;22.90;99.90;;;;;;5072785;28;19904;-69